Terminal Aerodrome Forecast
Issued by NWS Central Illinois

Home | Current Version | Previous Version | Text Only | Print | Product List | Glossary On
Versions: 1 2 3 4 5 6 7 8 9 10 11 12 13 14 15 16 17 18 19 20 21 22 23 24 25 26 27 28 29 30 31 32 33 34 35 36 37 38 39 40 41 42
575
FTUS43 KILX 170751 AAB
TAFPIA
TAF AMD
KPIA 170751Z 1708/1806 28007KT P6SM -RA OVC003
      TEMPO 1708/1710 2SM -DZ BR OVC002
     FM171000 27008KT 1/4SM -DZ FG VV002
     FM171400 25005KT 1/4SM -DZ FG OVC003
     FM171700 26010KT 2SM BR OVC003
     FM172000 27010KT 4SM BR OVC004=

USA.gov is the U.S. government's official web portal to all federal, state and local government web resources and services.